createdAt,value
2018-04-29T00:01:52.832Z,51.53
2018-04-29T00:04:20.612Z,49.60
2018-04-29T00:06:48.078Z,54.00
2018-04-29T00:09:15.578Z,50.03
2018-04-29T00:11:43.037Z,56.17
2018-04-29T00:14:10.499Z,57.77
2018-04-29T00:16:37.968Z,57.60
2018-04-29T00:19:05.472Z,56.77
2018-04-29T00:21:33.708Z,60.83
2018-04-29T00:24:01.176Z,63.60
2018-04-29T00:26:28.624Z,61.27
2018-04-29T00:28:56.085Z,60.37
2018-04-29T00:31:23.532Z,62.67
2018-04-29T00:33:51.014Z,61.07
2018-04-29T00:36:18.471Z,58.47
2018-04-29T00:38:46.382Z,69.20
2018-04-29T00:41:13.891Z,76.53
2018-04-29T00:43:41.359Z,84.47
2018-04-29T00:46:08.815Z,67.60
2018-04-29T00:48:36.274Z,70.73
2018-04-29T00:51:03.724Z,59.87
2018-04-29T00:53:31.190Z,67.57
2018-04-29T00:55:58.656Z,63.97
2018-04-29T00:58:26.888Z,57.47
2018-04-29T01:00:54.353Z,54.77
2018-04-29T01:03:21.825Z,68.13
2018-04-29T01:05:49.279Z,57.60
2018-04-29T01:08:16.746Z,66.93
2018-04-29T01:10:44.197Z,62.67
2018-04-29T01:13:11.650Z,65.50
2018-04-29T01:15:39.120Z,62.53
2018-04-29T01:18:06.577Z,51.73
2018-04-29T01:20:34.808Z,45.87
2018-04-29T01:23:02.268Z,61.50
2018-04-29T01:25:29.736Z,94.17
2018-04-29T01:27:57.205Z,61.07
2018-04-29T01:30:24.657Z,66.33
2018-04-29T01:32:52.164Z,58.30
2018-04-29T01:35:19.624Z,73.23
2018-04-29T01:37:47.280Z,67.27
2018-04-29T01:40:14.747Z,68.70
2018-04-29T01:42:42.252Z,78.07
2018-04-29T01:45:09.735Z,67.43
2018-04-29T01:47:37.949Z,70.67
2018-04-29T01:50:05.416Z,81.70
2018-04-29T01:52:32.937Z,88.77
2018-04-29T01:55:00.348Z,78.50
2018-04-29T01:57:27.816Z,74.37
2018-04-29T01:59:55.271Z,99.20
2018-04-29T02:02:22.735Z,78.77
2018-04-29T02:04:50.179Z,89.63
2018-04-29T02:07:17.639Z,98.83
2018-04-29T02:09:45.087Z,66.57
2018-04-29T02:12:12.547Z,98.27
2018-04-29T02:14:40.009Z,71.13
2018-04-29T02:17:07.473Z,79.40
2018-04-29T02:19:34.937Z,88.77
2018-04-29T02:22:03.162Z,83.20
2018-04-29T02:24:30.624Z,76.03
2018-04-29T02:26:58.099Z,90.17
2018-04-29T02:29:26.548Z,73.13
2018-04-29T02:31:54.021Z,72.53
2018-04-29T02:34:22.380Z,77.53
2018-04-29T02:36:49.836Z,71.47
2018-04-29T02:39:17.311Z,71.73
2018-04-29T02:41:44.798Z,76.10
2018-04-29T02:44:12.253Z,76.67
2018-04-29T02:46:39.704Z,71.60
2018-04-29T02:49:07.184Z,74.00
2018-04-29T02:51:35.429Z,80.23
2018-04-29T02:54:02.894Z,87.23
2018-04-29T02:56:30.356Z,83.80
2018-04-29T02:58:57.811Z,66.27
2018-04-29T03:01:25.273Z,73.50
2018-04-29T03:03:52.728Z,63.57
2018-04-29T03:06:20.186Z,66.43
2018-04-29T03:08:47.651Z,68.30
2018-04-29T03:11:15.097Z,63.77
2018-04-29T03:13:42.608Z,72.83
2018-04-29T03:16:10.052Z,68.83
2018-04-29T03:18:37.515Z,68.90
2018-04-29T03:21:04.976Z,69.03
2018-04-29T03:23:32.444Z,58.40
2018-04-29T03:26:00.815Z,67.20
2018-04-29T03:28:28.280Z,65.23
2018-04-29T03:30:55.771Z,58.33
2018-04-29T03:33:23.992Z,63.03
2018-04-29T03:35:51.437Z,69.70
2018-04-29T03:38:18.905Z,63.10
2018-04-29T03:40:47.364Z,66.40
2018-04-29T03:43:15.567Z,65.30
2018-04-29T03:45:43.029Z,69.43
2018-04-29T03:48:10.479Z,61.33
2018-04-29T03:50:37.955Z,56.20
2018-04-29T03:53:05.411Z,68.40
2018-04-29T03:55:32.861Z,60.20
2018-04-29T03:58:12.152Z,60.97
2018-04-29T04:00:52.970Z,59.60
2018-04-29T04:03:32.377Z,64.77
2018-04-29T04:05:59.840Z,69.50
2018-04-29T04:08:28.168Z,71.30
2018-04-29T04:10:55.632Z,70.33
2018-04-29T04:13:23.092Z,61.87
2018-04-29T04:15:50.556Z,69.33
2018-04-29T04:18:18.780Z,63.87
2018-04-29T04:20:46.248Z,62.67
2018-04-29T04:23:13.719Z,74.07
2018-04-29T04:25:41.169Z,73.73
2018-04-29T04:28:08.641Z,64.17
2018-04-29T04:30:36.095Z,69.63
2018-04-29T04:33:03.548Z,63.60
2018-04-29T04:35:31.019Z,64.10
2018-04-29T04:37:58.481Z,68.60
2018-04-29T04:40:25.948Z,73.73
2018-04-29T04:42:54.202Z,64.90
2018-04-29T04:45:21.673Z,68.63
2018-04-29T04:47:49.906Z,65.50
2018-04-29T04:50:17.373Z,63.93
2018-04-29T04:52:44.839Z,70.57
2018-04-29T04:55:12.305Z,62.40
2018-04-29T04:57:41.276Z,66.57
2018-04-29T05:00:08.738Z,65.60
2018-04-29T05:02:36.189Z,71.70
2018-04-29T05:05:03.663Z,55.13
2018-04-29T05:07:31.880Z,68.30
2018-04-29T05:09:59.369Z,69.87
2018-04-29T05:12:27.496Z,65.00
2018-04-29T05:14:55.720Z,64.57
2018-04-29T05:17:23.176Z,68.63
2018-04-29T05:19:50.660Z,67.90
2018-04-29T05:22:18.237Z,70.53
2018-04-29T05:24:46.444Z,61.80
2018-04-29T05:27:14.385Z,64.83
2018-04-29T05:29:42.614Z,64.50
2018-04-29T05:32:11.013Z,62.10
2018-04-29T05:34:39.981Z,73.73
2018-04-29T05:37:07.464Z,61.83
2018-04-29T05:39:34.916Z,68.00
2018-04-29T05:42:02.380Z,74.03
2018-04-29T05:44:29.845Z,67.47
2018-04-29T05:46:58.081Z,72.90
2018-04-29T05:49:25.564Z,80.00
2018-04-29T05:51:53.118Z,69.30
2018-04-29T05:54:20.636Z,74.13
2018-04-29T05:56:48.110Z,68.37
2018-04-29T05:59:15.573Z,62.53
2018-04-29T06:01:43.045Z,57.63
2018-04-29T06:04:10.516Z,61.27
2018-04-29T06:06:38.095Z,53.47
2018-04-29T06:09:05.584Z,59.33
2018-04-29T06:11:33.089Z,52.30
2018-04-29T06:14:00.703Z,49.40
2018-04-29T06:16:28.109Z,50.13
2018-04-29T06:18:55.568Z,51.80
2018-04-29T06:21:23.037Z,46.73
2018-04-29T06:23:51.343Z,40.73
2018-04-29T06:26:18.809Z,47.20
2018-04-29T06:28:47.148Z,46.17
2018-04-29T06:31:15.384Z,53.17
2018-04-29T06:33:42.844Z,50.80
2018-04-29T06:36:10.309Z,45.97
2018-04-29T06:38:37.780Z,46.03
2018-04-29T06:41:05.324Z,45.00
2018-04-29T06:43:32.797Z,48.73
2018-04-29T06:46:01.020Z,49.30
2018-04-29T06:48:28.501Z,47.50
2018-04-29T06:50:55.967Z,50.10
2018-04-29T06:53:23.444Z,46.07
2018-04-29T06:55:50.902Z,46.10
2018-04-29T06:58:19.139Z,42.23
2018-04-29T07:00:46.607Z,43.97
2018-04-29T07:03:14.065Z,42.03
2018-04-29T07:05:41.534Z,40.83
2018-04-29T07:08:09.768Z,42.10
2018-04-29T07:10:37.219Z,40.63
2018-04-29T07:13:04.688Z,44.13
2018-04-29T07:15:32.165Z,47.80
2018-04-29T07:17:59.632Z,43.97
2018-04-29T07:20:27.096Z,49.20
2018-04-29T07:22:55.357Z,44.30
2018-04-29T07:25:22.819Z,45.63
2018-04-29T07:27:50.300Z,47.30
2018-04-29T07:30:17.733Z,47.53
2018-04-29T07:32:45.213Z,54.43
2018-04-29T07:35:13.518Z,50.47
2018-04-29T07:37:40.985Z,56.37
2018-04-29T07:40:08.467Z,54.60
2018-04-29T07:42:35.919Z,55.20
2018-04-29T07:45:03.392Z,54.37
2018-04-29T07:47:30.853Z,59.97
2018-04-29T07:49:58.325Z,56.00
2018-04-29T07:52:26.665Z,60.03
2018-04-29T07:54:55.574Z,56.73
2018-04-29T07:57:23.040Z,58.63
2018-04-29T07:59:50.601Z,60.13
2018-04-29T08:02:18.061Z,63.70
2018-04-29T08:04:45.538Z,65.27
2018-04-29T08:07:13.765Z,67.53
2018-04-29T08:09:41.241Z,66.43
2018-04-29T08:12:08.705Z,60.53
2018-04-29T08:14:36.181Z,62.57
2018-04-29T08:17:04.408Z,62.33
2018-04-29T08:19:31.880Z,59.13
2018-04-29T08:21:59.357Z,60.83
2018-04-29T08:24:26.816Z,59.90
2018-04-29T08:26:55.045Z,67.07
2018-04-29T08:29:22.517Z,63.63
2018-04-29T08:31:49.984Z,61.90
2018-04-29T08:34:17.452Z,65.00
2018-04-29T08:36:44.996Z,64.10
2018-04-29T08:39:12.479Z,67.07
2018-04-29T08:41:40.733Z,64.70
2018-04-29T08:44:08.296Z,65.43
2018-04-29T08:46:35.776Z,69.90
2018-04-29T08:49:04.009Z,70.30
2018-04-29T08:51:31.469Z,67.40
2018-04-29T08:53:58.938Z,69.13
2018-04-29T08:56:26.496Z,66.63
2018-04-29T08:58:53.959Z,73.10
2018-04-29T09:01:21.464Z,81.20
2018-04-29T09:03:49.030Z,65.53
2018-04-29T09:06:16.384Z,80.57
2018-04-29T09:08:43.858Z,72.00
2018-04-29T09:11:11.324Z,65.33
2018-04-29T09:13:38.795Z,72.07
2018-04-29T09:16:06.261Z,72.70
2018-04-29T09:18:33.732Z,77.60
2018-04-29T09:21:01.970Z,70.40
2018-04-29T09:23:29.444Z,78.17
2018-04-29T09:25:56.921Z,77.27
2018-04-29T09:28:25.374Z,82.40
2018-04-29T09:30:52.844Z,77.73
2018-04-29T09:33:20.296Z,73.27
2018-04-29T09:35:47.756Z,77.17
2018-04-29T09:38:15.230Z,76.77
2018-04-29T09:40:43.452Z,74.13
2018-04-29T09:43:10.928Z,71.17
2018-04-29T09:45:38.392Z,75.17
2018-04-29T09:48:08.088Z,69.10
2018-04-29T09:50:35.532Z,76.70
2018-04-29T09:53:03.000Z,77.17
2018-04-29T09:55:30.528Z,67.60
2018-04-29T09:57:58.004Z,69.30
2018-04-29T10:00:27.254Z,69.23
2018-04-29T10:03:01.368Z,67.47
2018-04-29T10:05:29.593Z,73.87
2018-04-29T10:07:57.061Z,66.00
2018-04-29T10:10:24.520Z,71.80
2018-04-29T10:12:51.984Z,66.10
2018-04-29T10:15:19.466Z,67.70
2018-04-29T10:17:47.716Z,70.53
2018-04-29T10:20:15.209Z,71.33
2018-04-29T10:22:43.432Z,71.47
2018-04-29T10:25:10.906Z,65.90
2018-04-29T10:27:38.469Z,69.60
2018-04-29T10:30:06.461Z,72.87
2018-04-29T10:32:34.698Z,69.90
2018-04-29T10:35:02.946Z,66.80
2018-04-29T10:37:30.404Z,61.83
2018-04-29T10:39:58.005Z,63.27
2018-04-29T10:42:26.464Z,62.77
2018-04-29T10:44:53.927Z,70.67
2018-04-29T10:47:21.404Z,60.63
2018-04-29T10:49:48.856Z,69.23
2018-04-29T10:52:16.411Z,62.70
2018-04-29T10:54:43.864Z,59.67
2018-04-29T10:57:11.433Z,63.03
2018-04-29T10:59:38.904Z,58.63
2018-04-29T11:02:07.153Z,66.27
2018-04-29T11:04:34.666Z,67.53
2018-04-29T11:07:02.128Z,71.60
2018-04-29T11:09:29.582Z,61.77
2018-04-29T11:11:57.056Z,63.00
2018-04-29T11:14:25.758Z,63.10
2018-04-29T11:16:53.355Z,58.73
2018-04-29T11:19:23.145Z,62.30
2018-04-29T11:21:51.447Z,58.53
2018-04-29T11:24:19.793Z,62.20
2018-04-29T11:26:47.260Z,60.07
2018-04-29T11:29:14.755Z,57.70
2018-04-29T11:31:42.210Z,54.57
2018-04-29T11:34:10.507Z,53.43
2018-04-29T11:36:38.161Z,57.10
2018-04-29T11:39:05.628Z,54.30
2018-04-29T11:41:33.110Z,54.67
2018-04-29T11:44:00.720Z,56.87
2018-04-29T11:46:28.193Z,55.83
2018-04-29T11:48:55.646Z,58.07
2018-04-29T11:51:23.883Z,60.03
2018-04-29T11:53:52.369Z,57.97
2018-04-29T11:56:20.592Z,55.33
2018-04-29T11:58:48.098Z,60.43
2018-04-29T12:01:16.340Z,64.47
2018-04-29T12:03:44.603Z,60.20
2018-04-29T12:06:12.155Z,60.20
2018-04-29T12:08:39.648Z,63.47
2018-04-29T12:11:07.619Z,58.60
2018-04-29T12:13:35.076Z,54.37
2018-04-29T12:16:02.550Z,67.33
2018-04-29T12:18:30.790Z,61.43
2018-04-29T12:20:58.423Z,53.90
2018-04-29T12:23:26.747Z,59.83
2018-04-29T12:25:54.543Z,61.47
2018-04-29T12:28:25.353Z,60.80
2018-04-29T12:30:52.914Z,61.20
2018-04-29T12:33:21.209Z,61.80
2018-04-29T12:35:49.496Z,53.87
2018-04-29T12:38:18.814Z,51.80
2018-04-29T12:40:46.305Z,51.87
2018-04-29T12:43:13.804Z,48.17
2018-04-29T12:45:41.335Z,48.53
2018-04-29T12:48:10.448Z,46.80
2018-04-29T12:50:38.683Z,47.60
2018-04-29T12:53:07.283Z,47.83
2018-04-29T12:55:35.516Z,55.53
2018-04-29T12:58:03.236Z,44.27
2018-04-29T13:00:30.825Z,45.13
2018-04-29T13:02:58.357Z,44.47
2018-04-29T13:05:26.699Z,41.33
2018-04-29T13:07:54.170Z,49.10
2018-04-29T13:10:21.637Z,41.90
2018-04-29T13:12:49.118Z,41.53
2018-04-29T13:15:17.393Z,46.23
2018-04-29T13:17:45.664Z,41.03
2018-04-29T13:20:13.908Z,42.37
2018-04-29T13:22:41.381Z,47.17
2018-04-29T13:25:08.832Z,45.43
2018-04-29T13:27:36.288Z,43.93
2018-04-29T13:30:03.751Z,42.00
2018-04-29T13:32:31.985Z,40.83
2018-04-29T13:34:59.492Z,45.67
2018-04-29T13:37:27.765Z,45.37
2018-04-29T13:39:55.991Z,41.93
2018-04-29T13:42:23.494Z,44.93
2018-04-29T13:44:50.933Z,42.27
2018-04-29T13:47:18.400Z,46.13
2018-04-29T13:49:45.875Z,47.20
2018-04-29T13:52:14.158Z,47.93
2018-04-29T13:54:41.613Z,42.70
2018-04-29T13:57:09.961Z,41.80
2018-04-29T13:59:38.215Z,45.00
2018-04-29T14:02:05.819Z,45.93
2018-04-29T14:04:34.061Z,38.93
2018-04-29T14:07:01.560Z,38.27
2018-04-29T14:09:29.804Z,33.60
2018-04-29T14:11:57.359Z,39.03
2018-04-29T14:14:24.840Z,38.30
2018-04-29T14:16:53.076Z,35.63
2018-04-29T14:19:20.584Z,34.70
2018-04-29T14:21:48.049Z,35.40
2018-04-29T14:24:15.529Z,37.03
2018-04-29T14:26:42.984Z,38.50
2018-04-29T14:29:10.460Z,35.00
2018-04-29T14:31:37.920Z,31.67
2018-04-29T14:34:05.514Z,34.00
2018-04-29T14:36:34.518Z,30.17
2018-04-29T14:39:02.101Z,30.07
2018-04-29T14:41:29.568Z,31.77
2018-04-29T14:43:57.064Z,30.33
2018-04-29T14:46:24.544Z,34.20
2018-04-29T14:48:53.847Z,27.17
2018-04-29T14:51:22.173Z,31.73
2018-04-29T14:53:49.661Z,28.30
2018-04-29T14:56:17.882Z,27.27
2018-04-29T14:58:45.909Z,26.23
2018-04-29T15:01:14.178Z,27.33
2018-04-29T15:03:42.001Z,33.73
2018-04-29T15:06:09.489Z,31.57
2018-04-29T15:08:38.495Z,31.60
2018-04-29T15:11:06.068Z,39.40
2018-04-29T15:13:34.554Z,37.33
2018-04-29T15:16:03.175Z,36.27
2018-04-29T15:18:43.355Z,41.63
2018-04-29T15:21:13.165Z,39.23
2018-04-29T15:23:40.765Z,35.70
2018-04-29T15:26:09.053Z,31.77
2018-04-29T15:28:36.513Z,30.27
2018-04-29T15:31:04.025Z,27.17
2018-04-29T15:33:31.493Z,27.90
2018-04-29T15:36:00.476Z,27.40
2018-04-29T15:38:27.939Z,27.03
2018-04-29T15:40:55.408Z,31.40
2018-04-29T15:43:22.984Z,29.43
2018-04-29T15:45:51.216Z,28.50
2018-04-29T15:48:18.693Z,26.67
2018-04-29T15:50:46.169Z,25.57
2018-04-29T15:53:14.417Z,22.17
2018-04-29T15:55:42.180Z,27.17
2018-04-29T15:58:09.715Z,28.53
2018-04-29T16:00:37.884Z,30.97
2018-04-29T16:03:05.362Z,31.83
2018-04-29T16:05:32.817Z,36.77
2018-04-29T16:08:00.299Z,35.83
2018-04-29T16:10:27.756Z,34.03
2018-04-29T16:12:55.997Z,37.90
2018-04-29T16:15:23.456Z,35.10
2018-04-29T16:17:50.951Z,38.93
2018-04-29T16:20:19.180Z,41.50
2018-04-29T16:22:47.582Z,39.37
2018-04-29T16:25:15.052Z,37.87
2018-04-29T16:27:43.280Z,42.40
2018-04-29T16:30:10.873Z,47.37
2018-04-29T16:32:38.350Z,54.27
2018-04-29T16:35:06.573Z,47.07
2018-04-29T16:37:34.049Z,46.17
2018-04-29T16:40:01.520Z,45.37
2018-04-29T16:42:29.004Z,51.30
2018-04-29T16:44:56.495Z,43.37
2018-04-29T16:47:24.018Z,42.47
2018-04-29T16:49:52.272Z,45.73
2018-04-29T16:52:19.820Z,46.90
2018-04-29T16:54:48.917Z,51.03
2018-04-29T16:57:16.391Z,44.77
2018-04-29T16:59:44.644Z,46.70
2018-04-29T17:02:12.123Z,50.13
2018-04-29T17:04:40.344Z,45.83
2018-04-29T17:07:07.825Z,48.93
2018-04-29T17:09:35.300Z,54.17
2018-04-29T17:12:04.268Z,46.77
2018-04-29T17:14:32.563Z,47.00
2018-04-29T17:17:00.066Z,42.93
2018-04-29T17:19:28.303Z,46.00
2018-04-29T17:21:55.775Z,49.73
2018-04-29T17:24:23.993Z,48.30
2018-04-29T17:26:51.470Z,44.93
2018-04-29T17:29:18.944Z,48.00
2018-04-29T17:31:47.113Z,43.30
2018-04-29T17:34:14.569Z,50.47
2018-04-29T17:36:42.067Z,40.20
2018-04-29T17:39:09.540Z,41.13
2018-04-29T17:41:37.036Z,41.00
2018-04-29T17:44:04.503Z,33.83
2018-04-29T17:46:31.981Z,44.87
2018-04-29T17:49:00.293Z,39.73
2018-04-29T17:51:27.763Z,44.80
2018-04-29T17:53:55.212Z,44.93
2018-04-29T17:56:22.688Z,43.80
2018-04-29T17:58:50.162Z,40.90
2018-04-29T18:01:17.653Z,35.80
2018-04-29T18:03:45.878Z,41.13
2018-04-29T18:06:13.353Z,39.40
2018-04-29T18:08:40.930Z,34.90
2018-04-29T18:11:09.158Z,35.17
2018-04-29T18:13:36.617Z,34.53
2018-04-29T18:16:04.206Z,41.20
2018-04-29T18:18:32.448Z,39.60
2018-04-29T18:20:59.904Z,33.07
2018-04-29T18:23:27.384Z,38.27
2018-04-29T18:25:54.848Z,37.23
2018-04-29T18:28:22.407Z,34.93
2018-04-29T18:30:49.968Z,38.50
2018-04-29T18:33:17.520Z,35.73
2018-04-29T18:35:45.010Z,35.27
2018-04-29T18:38:12.486Z,36.43
2018-04-29T18:40:40.045Z,39.00
2018-04-29T18:43:07.524Z,37.50
2018-04-29T18:45:35.001Z,37.33
2018-04-29T18:48:02.493Z,36.13
2018-04-29T18:50:30.778Z,36.40
2018-04-29T18:52:58.227Z,36.47
2018-04-29T18:55:27.188Z,39.57
2018-04-29T18:57:54.652Z,35.83
2018-04-29T19:00:22.115Z,39.40
2018-04-29T19:02:49.652Z,36.67
2018-04-29T19:05:17.125Z,35.30
2018-04-29T19:07:45.380Z,35.87
2018-04-29T19:10:12.861Z,32.90
2018-04-29T19:12:40.352Z,32.10
2018-04-29T19:15:07.813Z,30.07
2018-04-29T19:17:35.300Z,30.10
2018-04-29T19:20:03.696Z,38.40
2018-04-29T19:22:31.159Z,27.90
2018-04-29T19:24:58.734Z,30.50
2018-04-29T19:27:26.993Z,30.30
2018-04-29T19:29:54.610Z,29.27
2018-04-29T19:32:22.967Z,28.93
2018-04-29T19:34:51.708Z,24.50
2018-04-29T19:37:19.209Z,27.27
2018-04-29T19:39:46.672Z,28.20
2018-04-29T19:42:14.156Z,30.30
2018-04-29T19:44:41.632Z,24.50
2018-04-29T19:47:09.124Z,24.97
2018-04-29T19:49:37.464Z,29.10
2018-04-29T19:52:04.858Z,27.27
2018-04-29T19:54:33.162Z,26.83
2018-04-29T19:57:00.568Z,32.33
2018-04-29T19:59:28.024Z,29.33
2018-04-29T20:01:55.590Z,32.13
2018-04-29T20:04:23.148Z,34.53
2018-04-29T20:06:51.381Z,31.80
2018-04-29T20:09:18.863Z,35.50
2018-04-29T20:11:46.333Z,31.97
2018-04-29T20:14:13.816Z,42.57
2018-04-29T20:16:42.069Z,36.83
2018-04-29T20:19:09.533Z,40.03
2018-04-29T20:21:37.024Z,37.83
2018-04-29T20:24:04.486Z,38.83
2018-04-29T20:26:31.948Z,38.40
2018-04-29T20:28:59.457Z,45.97
2018-04-29T20:31:27.008Z,42.70
2018-04-29T20:33:54.469Z,46.00
2018-04-29T20:36:23.445Z,46.90
2018-04-29T20:38:50.938Z,45.47
2018-04-29T20:41:19.228Z,40.90
2018-04-29T20:43:47.500Z,39.87
2018-04-29T20:46:14.973Z,51.17
2018-04-29T20:48:42.445Z,42.20
2018-04-29T20:51:09.920Z,43.53
2018-04-29T20:53:37.402Z,39.87
2018-04-29T20:56:04.851Z,33.13
2018-04-29T20:58:32.321Z,35.47
2018-04-29T21:01:00.901Z,31.13
2018-04-29T21:03:29.885Z,37.13
2018-04-29T21:05:57.352Z,31.73
2018-04-29T21:08:24.815Z,27.47
2018-04-29T21:10:53.057Z,23.07
2018-04-29T21:13:20.552Z,28.63
2018-04-29T21:15:48.783Z,28.03
2018-04-29T21:18:16.235Z,26.90
2018-04-29T21:20:43.692Z,26.53
2018-04-29T21:23:11.160Z,32.23
2018-04-29T21:25:38.612Z,24.87
2018-04-29T21:28:06.076Z,27.80
2018-04-29T21:30:33.546Z,25.00
2018-04-29T21:33:01.013Z,29.43
2018-04-29T21:35:28.562Z,27.50
2018-04-29T21:37:56.029Z,29.40
2018-04-29T21:40:23.491Z,29.47
2018-04-29T21:42:51.034Z,22.40
2018-04-29T21:45:19.200Z,28.07
2018-04-29T21:47:46.669Z,26.87
2018-04-29T21:50:14.138Z,25.80
2018-04-29T21:52:42.382Z,28.67
2018-04-29T21:55:09.844Z,23.23
2018-04-29T21:57:37.308Z,27.43
2018-04-29T22:00:04.864Z,22.50
2018-04-29T22:02:32.330Z,22.43
2018-04-29T22:04:59.793Z,25.70
2018-04-29T22:07:28.053Z,23.30
2018-04-29T22:09:55.519Z,20.93
2018-04-29T22:12:22.971Z,24.37
2018-04-29T22:14:50.528Z,20.70
2018-04-29T22:17:18.094Z,19.40
2018-04-29T22:19:47.172Z,18.90
2018-04-29T22:22:14.641Z,22.67
2018-04-29T22:24:42.103Z,20.33
2018-04-29T22:27:09.568Z,22.20
2018-04-29T22:29:37.797Z,27.10
2018-04-29T22:32:05.288Z,23.83
2018-04-29T22:34:33.524Z,24.30
2018-04-29T22:37:01.067Z,27.93
2018-04-29T22:39:28.456Z,22.90
2018-04-29T22:41:55.942Z,26.07
2018-04-29T22:44:23.399Z,31.60
2018-04-29T22:46:50.852Z,31.60
2018-04-29T22:49:18.379Z,29.87
2018-04-29T22:51:45.851Z,21.80
2018-04-29T22:54:13.304Z,27.97
2018-04-29T22:56:40.770Z,28.53
2018-04-29T22:59:08.236Z,24.53
2018-04-29T23:01:35.684Z,22.53
2018-04-29T23:04:03.228Z,28.30
2018-04-29T23:06:31.420Z,31.97
2018-04-29T23:08:59.888Z,25.40
2018-04-29T23:11:27.867Z,36.73
2018-04-29T23:13:55.320Z,33.37
2018-04-29T23:16:22.885Z,31.63
2018-04-29T23:18:50.356Z,31.33
2018-04-29T23:21:18.652Z,33.07
2018-04-29T23:23:46.877Z,27.10
2018-04-29T23:26:14.446Z,31.30
2018-04-29T23:28:41.906Z,28.60
2018-04-29T23:31:09.375Z,42.13
2018-04-29T23:33:37.601Z,27.27
2018-04-29T23:36:05.089Z,22.57
2018-04-29T23:38:32.545Z,32.60
2018-04-29T23:41:00.113Z,24.73
2018-04-29T23:43:27.572Z,27.73
2018-04-29T23:45:55.802Z,29.33
2018-04-29T23:48:23.268Z,31.23
2018-04-29T23:50:50.753Z,33.37
2018-04-29T23:53:18.216Z,31.63
2018-04-29T23:55:45.684Z,30.47
2018-04-29T23:58:13.928Z,31.10
